createdAt,value
2023-04-15T00:00:05.364Z,97720.98
2023-04-15T00:02:36.351Z,97719.87
2023-04-15T00:04:40.188Z,97714.61
2023-04-15T00:06:43.791Z,97712.98
2023-04-15T00:08:47.698Z,97713.27
2023-04-15T00:10:51.197Z,97709.32
2023-04-15T00:12:54.495Z,97707.03
2023-04-15T00:14:58.944Z,97705.87
2023-04-15T00:17:01.817Z,97708.08
2023-04-15T00:19:04.955Z,97708.11
2023-04-15T00:21:08.804Z,97707.84
2023-04-15T00:23:11.817Z,97706.64
2023-04-15T00:25:17.410Z,97703.03
2023-04-15T00:27:20.677Z,97702.22
2023-04-15T00:29:24.192Z,97697.98
2023-04-15T00:31:27.435Z,97693.27
2023-04-15T00:33:32.291Z,97687.94
2023-04-15T00:35:37.665Z,97683.91
2023-04-15T00:37:41.640Z,97683.95
2023-04-15T00:39:46.568Z,97682.80
2023-04-15T00:41:50.665Z,97679.27
2023-04-15T00:43:55.524Z,97678.20
2023-04-15T00:46:02.495Z,97678.11
2023-04-15T00:48:05.867Z,97674.07
2023-04-15T00:50:11.153Z,97678.22
2023-04-15T00:52:14.870Z,97676.73
2023-04-15T00:54:18.091Z,97674.89
2023-04-15T00:56:24.564Z,97676.10
2023-04-15T00:58:28.340Z,97677.73
2023-04-15T01:00:32.269Z,97673.90
2023-04-15T01:02:42.929Z,97677.16
2023-04-15T01:04:49.050Z,97671.95
2023-04-15T01:06:55.354Z,97669.85
2023-04-15T01:11:28.064Z,97664.02
2023-04-15T01:13:37.337Z,97663.58
2023-04-15T01:15:43.120Z,97657.39
2023-04-15T01:20:19.677Z,97659.52
2023-04-15T01:22:33.312Z,97659.84
2023-04-15T01:24:41.848Z,97659.52
2023-04-15T01:26:51.488Z,97659.97
2023-04-15T01:28:57.805Z,97657.28
2023-04-15T01:31:12.666Z,97654.88
2023-04-15T01:33:19.178Z,97656.71
2023-04-15T01:35:38.574Z,97654.88
2023-04-15T01:37:46.248Z,97654.84
2023-04-15T01:39:51.159Z,97653.57
2023-04-15T01:41:59.795Z,97653.13
2023-04-15T01:44:33.564Z,97651.09
2023-04-15T01:46:39.284Z,97656.14
2023-04-15T01:48:45.032Z,97656.36
2023-04-15T01:50:52.455Z,97653.17
2023-04-15T01:52:59.733Z,97651.30
2023-04-15T01:55:09.752Z,97653.09
2023-04-15T01:57:18.394Z,97650.52
2023-04-15T01:59:24.863Z,97650.11
2023-04-15T02:01:33.454Z,97644.52
2023-04-15T02:03:43.036Z,97645.23
2023-04-15T02:05:48.579Z,97647.22
2023-04-15T02:07:57.163Z,97644.63
2023-04-15T02:10:01.686Z,97645.24
2023-04-15T02:12:05.668Z,97643.70
2023-04-15T02:14:38.251Z,97641.09
2023-04-15T02:16:43.751Z,97640.50
2023-04-15T02:18:47.854Z,97638.66
2023-04-15T02:21:04.476Z,97639.38
2023-04-15T02:23:13.851Z,97637.77
2023-04-15T02:25:20.593Z,97635.77
2023-04-15T02:27:25.456Z,97635.70
2023-04-15T02:29:33.833Z,97634.99
2023-04-15T02:31:45.477Z,97633.85
2023-04-15T02:33:54.504Z,97634.03
2023-04-15T02:36:19.932Z,97630.10
2023-04-15T02:38:23.713Z,97629.56
2023-04-15T02:40:30.973Z,97628.98
2023-04-15T02:42:39.547Z,97629.05
2023-04-15T02:44:43.790Z,97625.30
2023-04-15T02:46:53.706Z,97626.68
2023-04-15T02:49:09.900Z,97625.40
2023-04-15T02:51:24.658Z,97631.23
2023-04-15T02:53:33.639Z,97633.64
2023-04-15T02:55:39.461Z,97632.64
2023-04-15T02:57:48.637Z,97634.17
2023-04-15T02:59:55.773Z,97635.64
2023-04-15T03:02:03.204Z,97633.99
2023-04-15T03:04:11.754Z,97633.10
2023-04-15T03:06:16.898Z,97631.38
2023-04-15T03:08:25.288Z,97631.13
2023-04-15T03:10:28.758Z,97625.70
2023-04-15T03:12:34.730Z,97628.33
2023-04-15T03:14:46.919Z,97626.23
2023-04-15T03:17:00.214Z,97625.04
2023-04-15T03:19:19.446Z,97632.75
2023-04-15T03:21:32.573Z,97629.11
2023-04-15T03:23:37.503Z,97628.90
2023-04-15T03:25:45.601Z,97631.10
2023-04-15T03:27:49.047Z,97634.94
2023-04-15T03:29:52.662Z,97634.65
2023-04-15T03:31:55.962Z,97633.17
2023-04-15T03:33:59.408Z,97632.46
2023-04-15T03:36:06.696Z,97632.36
2023-04-15T03:38:10.936Z,97635.42
2023-04-15T03:40:18.762Z,97636.59
2023-04-15T03:42:37.479Z,97640.91
2023-04-15T03:44:42.891Z,97643.17
2023-04-15T03:46:45.901Z,97636.11
2023-04-15T03:48:53.974Z,97636.90
2023-04-15T03:50:57.827Z,97634.83
2023-04-15T03:53:03.286Z,97634.61
2023-04-15T03:55:09.120Z,97634.75
2023-04-15T03:57:23.928Z,97633.45
2023-04-15T03:59:27.877Z,97630.56
2023-04-15T04:01:33.542Z,97628.60
2023-04-15T04:03:37.969Z,97625.21
2023-04-15T04:05:44.683Z,97626.38
2023-04-15T04:07:47.751Z,97621.94
2023-04-15T04:09:51.801Z,97624.39
2023-04-15T04:11:57.243Z,97627.29
2023-04-15T04:14:07.481Z,97630.30
2023-04-15T04:16:15.703Z,97631.22
2023-04-15T04:18:24.901Z,97629.80
2023-04-15T04:20:32.521Z,97625.27
2023-04-15T04:22:42.800Z,97622.03
2023-04-15T04:24:48.716Z,97626.62
2023-04-15T04:26:52.713Z,97624.65
2023-04-15T04:28:58.559Z,97618.64
2023-04-15T04:31:03.991Z,97622.39
2023-04-15T04:33:30.438Z,97622.88
2023-04-15T04:35:37.918Z,97621.28
2023-04-15T04:37:42.148Z,97622.55
2023-04-15T04:39:45.968Z,97620.85
2023-04-15T04:41:50.596Z,97625.79
2023-04-15T04:43:54.139Z,97623.19
2023-04-15T04:46:00.198Z,97622.63
2023-04-15T04:48:07.263Z,97623.65
2023-04-15T04:50:11.982Z,97627.96
2023-04-15T04:52:17.925Z,97626.13
2023-04-15T04:54:21.578Z,97626.39
2023-04-15T04:56:24.845Z,97630.40
2023-04-15T04:58:28.628Z,97626.27
2023-04-15T05:00:31.491Z,97625.98
2023-04-15T05:02:40.633Z,97623.55
2023-04-15T05:04:43.938Z,97624.88
2023-04-15T05:06:47.879Z,97627.86
2023-04-15T05:08:51.552Z,97625.13
2023-04-15T05:10:55.485Z,97628.11
2023-04-15T05:13:01.644Z,97626.80
2023-04-15T05:15:06.185Z,97627.48
2023-04-15T05:17:16.307Z,97627.45
2023-04-15T05:19:34.385Z,97625.60
2023-04-15T05:21:47.296Z,97625.16
2023-04-15T05:23:52.485Z,97623.58
2023-04-15T05:25:58.003Z,97624.97
2023-04-15T05:28:00.915Z,97626.23
2023-04-15T05:30:15.266Z,97628.23
2023-04-15T05:32:25.449Z,97622.89
2023-04-15T05:34:28.914Z,97620.68
2023-04-15T05:39:01.129Z,97622.85
2023-04-15T05:41:10.525Z,97626.23
2023-04-15T05:43:15.335Z,97627.85
2023-04-15T05:45:27.374Z,97626.83
2023-04-15T05:47:49.203Z,97629.14
2023-04-15T05:49:54.274Z,97631.39
2023-04-15T05:52:01.852Z,97632.75
2023-04-15T05:54:20.258Z,97636.67
2023-04-15T05:56:45.835Z,97634.30
2023-04-15T05:58:53.825Z,97636.23
2023-04-15T06:01:02.869Z,97638.13
2023-04-15T06:03:09.054Z,97641.52
2023-04-15T06:05:43.766Z,97641.88
2023-04-15T06:07:50.712Z,97644.71
2023-04-15T06:10:02.689Z,97649.13
2023-04-15T06:12:10.038Z,97646.60
2023-04-15T06:14:19.382Z,97646.95
2023-04-15T06:16:23.688Z,97652.65
2023-04-15T06:18:30.629Z,97649.02
2023-04-15T06:20:36.244Z,97651.72
2023-04-15T06:22:54.370Z,97657.73
2023-04-15T06:25:06.344Z,97662.40
2023-04-15T06:27:24.591Z,97660.63
2023-04-15T06:29:28.238Z,97661.65
2023-04-15T06:31:51.421Z,97660.27
2023-04-15T06:33:58.230Z,97662.52
2023-04-15T06:36:20.338Z,97660.77
2023-04-15T06:38:24.664Z,97664.52
2023-04-15T06:40:30.704Z,97665.55
2023-04-15T06:42:35.651Z,97664.71
2023-04-15T06:44:44.165Z,97665.58
2023-04-15T06:46:55.510Z,97666.88
2023-04-15T06:49:01.057Z,97666.39
2023-04-15T06:51:08.088Z,97668.83
2023-04-15T06:53:20.061Z,97669.27
2023-04-15T06:55:23.361Z,97665.25
2023-04-15T06:57:27.867Z,97670.26
2023-04-15T06:59:30.738Z,97670.02
2023-04-15T07:01:38.553Z,97670.80
2023-04-15T07:03:45.350Z,97676.18
2023-04-15T07:05:54.295Z,97673.41
2023-04-15T07:08:09.467Z,97674.58
2023-04-15T07:10:16.213Z,97677.14
2023-04-15T07:12:20.773Z,97682.06
2023-04-15T07:14:27.936Z,97678.02
2023-04-15T07:16:34.724Z,97677.58
2023-04-15T07:18:38.778Z,97676.61
2023-04-15T07:20:48.253Z,97674.77
2023-04-15T07:22:53.660Z,97670.29
2023-04-15T07:24:59.480Z,97671.27
2023-04-15T07:27:08.357Z,97670.36
2023-04-15T07:31:39.616Z,97669.87
2023-04-15T07:33:49.118Z,97669.73
2023-04-15T07:36:07.146Z,97673.29
2023-04-15T07:40:41.050Z,97665.98
2023-04-15T07:43:01.148Z,97669.93
2023-04-15T07:45:09.088Z,97669.75
2023-04-15T07:47:13.053Z,97667.25
2023-04-15T07:49:16.977Z,97665.98
2023-04-15T07:51:30.341Z,97667.36
2023-04-15T07:53:54.829Z,97670.27
2023-04-15T07:56:10.745Z,97672.55
2023-04-15T07:58:35.386Z,97674.92
2023-04-15T08:00:41.142Z,97677.95
2023-04-15T08:02:51.017Z,97683.69
2023-04-15T08:05:03.474Z,97684.00
2023-04-15T08:07:37.463Z,97682.81
2023-04-15T08:09:44.405Z,97688.52
2023-04-15T08:12:00.871Z,97690.46
2023-04-15T08:14:28.740Z,97689.37
2023-04-15T08:16:33.190Z,97692.60
2023-04-15T08:18:40.936Z,97691.45
2023-04-15T08:20:57.128Z,97694.58
2023-04-15T08:23:06.845Z,97701.41
2023-04-15T08:25:29.696Z,97696.48
2023-04-15T08:27:40.791Z,97696.39
2023-04-15T08:29:57.022Z,97696.88
2023-04-15T08:32:09.905Z,97704.06
2023-04-15T08:34:35.084Z,97708.36
2023-04-15T08:36:42.854Z,97706.08
2023-04-15T08:38:49.101Z,97704.61
2023-04-15T08:40:52.663Z,97704.89
2023-04-15T08:45:48.076Z,97708.20
2023-04-15T08:48:47.158Z,97707.70
2023-04-15T08:50:36.266Z,97703.94
2023-04-15T08:52:40.895Z,97706.98
2023-04-15T08:54:53.627Z,97714.66
2023-04-15T08:57:02.718Z,97710.98
2023-04-15T08:59:08.614Z,97714.45
2023-04-15T09:01:43.634Z,97718.77
2023-04-15T09:03:54.494Z,97717.67
2023-04-15T09:06:03.511Z,97717.20
2023-04-15T09:08:09.411Z,97717.52
2023-04-15T09:10:33.806Z,97719.48
2023-04-15T09:12:38.893Z,97716.36
2023-04-15T09:14:47.012Z,97718.77
2023-04-15T09:17:01.422Z,97720.43
2023-04-15T09:19:26.091Z,97723.44
2023-04-15T09:21:32.274Z,97722.60
2023-04-15T09:23:37.457Z,97727.80
2023-04-15T09:25:53.417Z,97726.23
2023-04-15T09:28:01.803Z,97726.46
2023-04-15T09:30:10.085Z,97723.89
2023-04-15T09:32:34.402Z,97726.94
2023-04-15T09:34:38.546Z,97729.34
2023-04-15T09:36:57.022Z,97735.70
2023-04-15T09:41:44.305Z,97739.29
2023-04-15T09:43:53.021Z,97743.19
2023-04-15T09:46:05.683Z,97742.08
2023-04-15T09:48:32.339Z,97745.34
2023-04-15T09:50:57.932Z,97745.70
2023-04-15T09:53:04.434Z,97748.14
2023-04-15T09:55:13.077Z,97751.24
2023-04-15T09:57:19.903Z,97749.64
2023-04-15T09:59:25.488Z,97749.71
2023-04-15T10:01:29.990Z,97744.31
2023-04-15T10:03:40.571Z,97749.87
2023-04-15T10:05:52.586Z,97751.53
2023-04-15T10:07:56.875Z,97752.05
2023-04-15T10:10:05.171Z,97751.27
2023-04-15T10:12:10.565Z,97753.14
2023-04-15T10:14:31.158Z,97753.84
2023-04-15T10:16:40.124Z,97752.79
2023-04-15T10:18:46.807Z,97750.52
2023-04-15T10:20:58.254Z,97755.85
2023-04-15T10:25:34.532Z,97757.45
2023-04-15T10:27:41.273Z,97758.54
2023-04-15T10:32:03.485Z,97765.09
2023-04-15T10:34:09.083Z,97762.98
2023-04-15T10:36:13.015Z,97766.55
2023-04-15T10:38:41.900Z,97767.55
2023-04-15T10:40:48.234Z,97762.45
2023-04-15T10:42:57.570Z,97760.52
2023-04-15T10:45:04.562Z,97763.02
2023-04-15T10:47:14.208Z,97766.45
2023-04-15T10:49:32.428Z,97767.05
2023-04-15T10:51:42.853Z,97770.84
2023-04-15T10:53:46.313Z,97768.35
2023-04-15T10:55:55.148Z,97772.17
2023-04-15T10:58:04.313Z,97770.55
2023-04-15T11:00:18.635Z,97774.17
2023-04-15T11:02:45.483Z,97769.14
2023-04-15T11:04:55.803Z,97770.82
2023-04-15T11:07:07.521Z,97765.14
2023-04-15T11:09:33.784Z,97769.33
2023-04-15T11:12:22.285Z,97769.67
2023-04-15T11:14:26.603Z,97770.38
2023-04-15T11:16:31.057Z,97769.97
2023-04-15T11:18:38.912Z,97770.38
2023-04-15T11:20:59.692Z,97774.80
2023-04-15T11:23:14.655Z,97779.04
2023-04-15T11:25:27.710Z,97780.05
2023-04-15T11:27:36.682Z,97782.68
2023-04-15T11:29:52.460Z,97783.03
2023-04-15T11:32:10.526Z,97781.67
2023-04-15T11:34:24.054Z,97786.74
2023-04-15T11:36:34.553Z,97783.30
2023-04-15T11:38:56.095Z,97786.05
2023-04-15T11:41:03.817Z,97786.39
2023-04-15T11:43:15.989Z,97786.88
2023-04-15T11:45:23.398Z,97789.39
2023-04-15T11:47:27.515Z,97793.81
2023-04-15T11:49:34.351Z,97789.94
2023-04-15T11:51:37.908Z,97792.55
2023-04-15T11:54:15.155Z,97792.83
2023-04-15T11:56:22.809Z,97798.69
2023-04-15T11:58:42.501Z,97803.52
2023-04-15T12:00:56.192Z,97803.62
2023-04-15T12:03:20.215Z,97801.58
2023-04-15T12:05:25.857Z,97801.09
2023-04-15T12:07:58.622Z,97804.01
2023-04-15T12:10:03.996Z,97810.31
2023-04-15T12:12:15.008Z,97808.61
2023-04-15T12:14:51.859Z,97807.84
2023-04-15T12:16:58.817Z,97817.27
2023-04-15T12:19:10.983Z,97819.71
2023-04-15T12:21:17.117Z,97824.38
2023-04-15T12:23:20.734Z,97822.82
2023-04-15T12:25:35.575Z,97828.04
2023-04-15T12:27:39.430Z,97831.67
2023-04-15T12:29:49.248Z,97835.23
2023-04-15T12:31:54.277Z,97832.20
2023-04-15T12:34:00.775Z,97833.63
2023-04-15T12:36:08.060Z,97832.98
2023-04-15T12:38:12.183Z,97835.30
2023-04-15T12:40:17.834Z,97838.67
2023-04-15T12:42:23.008Z,97842.02
2023-04-15T12:44:27.356Z,97846.70
2023-04-15T12:46:30.614Z,97846.98
2023-04-15T12:48:33.566Z,97850.05
2023-04-15T12:50:40.140Z,97855.92
2023-04-15T12:53:00.539Z,97858.73
2023-04-15T12:55:17.523Z,97866.12
2023-04-15T12:57:24.620Z,97864.54
2023-04-15T12:59:29.242Z,97869.33
2023-04-15T13:01:33.541Z,97868.77
2023-04-15T13:03:37.810Z,97874.44
2023-04-15T13:05:43.590Z,97869.03
2023-04-15T13:07:46.475Z,97872.06
2023-04-15T13:09:51.962Z,97870.76
2023-04-15T13:11:59.500Z,97872.54
2023-04-15T13:14:05.583Z,97875.30
2023-04-15T13:16:10.090Z,97879.55
2023-04-15T13:18:14.795Z,97879.09
2023-04-15T13:20:19.980Z,97882.11
2023-04-15T13:22:22.752Z,97885.09
2023-04-15T13:24:28.217Z,97885.54
2023-04-15T13:26:35.612Z,97888.90
2023-04-15T13:28:40.070Z,97885.91
2023-04-15T13:30:54.770Z,97887.12
2023-04-15T13:33:02.921Z,97888.91
2023-04-15T13:35:52.671Z,97890.60
2023-04-15T13:37:56.941Z,97889.16
2023-04-15T13:40:02.902Z,97890.08
2023-04-15T13:42:10.446Z,97888.77
2023-04-15T13:44:14.720Z,97895.48
2023-04-15T13:46:17.931Z,97895.41
2023-04-15T13:48:29.781Z,97896.80
2023-04-15T13:50:55.025Z,97898.37
2023-04-15T13:53:09.550Z,97900.11
2023-04-15T13:55:20.419Z,97904.27
2023-04-15T13:57:29.867Z,97902.84
2023-04-15T13:59:35.006Z,97908.78
2023-04-15T14:01:38.104Z,97910.70
2023-04-15T14:03:41.414Z,97909.52
2023-04-15T14:05:47.868Z,97912.98
2023-04-15T14:08:05.579Z,97914.93
2023-04-15T14:10:14.152Z,97918.80
2023-04-15T14:12:18.268Z,97922.31
2023-04-15T14:14:21.319Z,97925.05
2023-04-15T14:16:27.522Z,97927.14
2023-04-15T14:18:45.399Z,97931.14
2023-04-15T14:21:24.402Z,97937.19
2023-04-15T14:23:28.465Z,97942.41
2023-04-15T14:25:33.939Z,97945.51
2023-04-15T14:27:39.633Z,97948.95
2023-04-15T14:29:44.142Z,97950.61
2023-04-15T14:32:08.619Z,97949.83
2023-04-15T14:34:13.456Z,97952.17
2023-04-15T14:36:16.572Z,97954.39
2023-04-15T14:38:22.845Z,97954.48
2023-04-15T14:40:32.521Z,97959.55
2023-04-15T14:42:40.156Z,97964.15
2023-04-15T14:44:45.150Z,97961.35
2023-04-15T14:46:51.717Z,97964.13
2023-04-15T14:49:00.059Z,97964.48
2023-04-15T14:51:18.005Z,97966.36
2023-04-15T14:53:31.386Z,97963.40
2023-04-15T14:55:36.422Z,97968.61
2023-04-15T14:57:46.822Z,97971.14
2023-04-15T14:59:49.744Z,97973.23
2023-04-15T15:01:59.031Z,97975.27
2023-04-15T15:04:02.417Z,97975.73
2023-04-15T15:06:06.923Z,97979.30
2023-04-15T15:08:10.744Z,97983.86
2023-04-15T15:10:13.919Z,97984.46
2023-04-15T15:12:17.384Z,97988.33
2023-04-15T15:14:20.612Z,97990.45
2023-04-15T15:16:23.841Z,97991.59
2023-04-15T15:18:27.516Z,97996.28
2023-04-15T15:20:36.542Z,97997.92
2023-04-15T15:22:40.346Z,97999.65
2023-04-15T15:24:43.148Z,98004.55
2023-04-15T15:26:46.803Z,98005.30
2023-04-15T15:28:51.460Z,98009.64
2023-04-15T15:30:54.850Z,98009.52
2023-04-15T15:32:58.358Z,98009.81
2023-04-15T15:35:01.349Z,98010.41
2023-04-15T15:37:04.934Z,98008.68
2023-04-15T15:39:10.629Z,98008.80
2023-04-15T15:41:16.418Z,98011.20
2023-04-15T15:43:22.790Z,98016.42
2023-04-15T15:45:44.636Z,98019.59
2023-04-15T15:47:51.598Z,98021.60
2023-04-15T15:49:55.838Z,98025.40
2023-04-15T15:52:00.845Z,98032.75
2023-04-15T15:54:06.340Z,98030.65
2023-04-15T15:56:10.450Z,98033.94
2023-04-15T15:58:14.523Z,98038.77
2023-04-15T16:00:40.009Z,98041.18
2023-04-15T16:04:53.030Z,98044.05
2023-04-15T16:06:58.600Z,98044.44
2023-04-15T16:09:03.662Z,98043.08
2023-04-15T16:11:12.571Z,98040.83
2023-04-15T16:13:18.767Z,98043.45
2023-04-15T16:15:44.019Z,98046.88
2023-04-15T16:17:50.556Z,98052.69
2023-04-15T16:20:01.356Z,98051.64
2023-04-15T16:22:05.874Z,98059.23
2023-04-15T16:24:11.223Z,98059.39
2023-04-15T16:26:18.342Z,98059.89
2023-04-15T16:28:26.847Z,98058.93
2023-04-15T16:30:32.461Z,98061.52
2023-04-15T16:32:40.507Z,98063.84
2023-04-15T16:35:11.952Z,98065.35
2023-04-15T16:37:17.348Z,98067.81
2023-04-15T16:39:27.271Z,98069.84
2023-04-15T16:41:34.444Z,98072.38
2023-04-15T16:43:37.197Z,98073.96
2023-04-15T16:45:54.989Z,98073.71
2023-04-15T16:48:04.363Z,98078.07
2023-04-15T16:50:09.378Z,98080.89
2023-04-15T16:54:58.391Z,98090.70
2023-04-15T16:57:03.549Z,98092.61
2023-04-15T16:59:06.765Z,98095.40
2023-04-15T17:03:28.942Z,98102.61
2023-04-15T17:05:32.909Z,98105.10
2023-04-15T17:07:37.692Z,98109.64
2023-04-15T17:09:41.196Z,98114.12
2023-04-15T17:11:45.672Z,98115.67
2023-04-15T17:13:49.154Z,98118.30
2023-04-15T17:15:56.209Z,98119.64
2023-04-15T17:18:02.431Z,98120.64
2023-04-15T17:20:26.888Z,98122.83
2023-04-15T17:22:34.227Z,98127.30
2023-04-15T17:25:07.044Z,98128.67
2023-04-15T17:27:12.104Z,98132.14
2023-04-15T17:29:14.837Z,98134.59
2023-04-15T17:31:18.473Z,98136.80
2023-04-15T17:33:58.860Z,98138.53
2023-04-15T17:35:56.321Z,98144.65
2023-04-15T17:38:01.022Z,98143.71
2023-04-15T17:40:12.379Z,98149.71
2023-04-15T17:42:17.894Z,98149.47
2023-04-15T17:44:25.137Z,98149.55
2023-04-15T17:46:31.880Z,98154.88
2023-04-15T17:48:37.107Z,98156.69
2023-04-15T17:50:51.880Z,98162.00
2023-04-15T17:53:05.089Z,98164.48
2023-04-15T17:55:10.078Z,98161.98
2023-04-15T17:57:13.841Z,98167.19
2023-04-15T17:59:19.184Z,98166.25
2023-04-15T18:01:26.759Z,98166.17
2023-04-15T18:03:29.878Z,98168.17
2023-04-15T18:05:52.891Z,98173.70
2023-04-15T18:08:01.501Z,98173.11
2023-04-15T18:10:14.663Z,98175.48
2023-04-15T18:12:17.688Z,98175.31
2023-04-15T18:14:33.639Z,98177.20
2023-04-15T18:16:42.929Z,98179.79
2023-04-15T18:18:46.063Z,98180.78
2023-04-15T18:21:04.459Z,98185.17
2023-04-15T18:23:14.759Z,98188.16
2023-04-15T18:25:21.029Z,98196.90
2023-04-15T18:27:26.512Z,98201.27
2023-04-15T18:29:32.864Z,98203.27
2023-04-15T18:31:37.494Z,98211.91
2023-04-15T18:33:41.845Z,98214.84
2023-04-15T18:35:44.772Z,98218.23
2023-04-15T18:37:51.413Z,98217.93
2023-04-15T18:40:18.619Z,98216.62
2023-04-15T18:42:28.078Z,98223.89
2023-04-15T18:44:34.408Z,98223.95
2023-04-15T18:46:42.790Z,98228.95
2023-04-15T18:48:46.981Z,98232.09
2023-04-15T18:51:02.508Z,98234.30
2023-04-15T18:53:19.869Z,98241.05
2023-04-15T18:55:42.805Z,98243.33
2023-04-15T18:57:46.925Z,98248.80
2023-04-15T18:59:55.656Z,98254.71
2023-04-15T19:02:04.437Z,98255.98
2023-04-15T19:04:07.866Z,98258.46
2023-04-15T19:06:13.929Z,98262.31
2023-04-15T19:08:18.474Z,98266.83
2023-04-15T19:10:24.941Z,98269.33
2023-04-15T19:12:28.031Z,98273.08
2023-04-15T19:14:31.907Z,98270.66
2023-04-15T19:16:42.463Z,98275.05
2023-04-15T19:18:46.805Z,98275.03
2023-04-15T19:20:53.508Z,98272.67
2023-04-15T19:23:00.795Z,98275.29
2023-04-15T19:25:14.353Z,98279.00
2023-04-15T19:27:18.577Z,98277.40
2023-04-15T19:29:26.698Z,98282.95
2023-04-15T19:31:31.108Z,98289.17
2023-04-15T19:33:37.886Z,98287.27
2023-04-15T19:35:43.213Z,98291.17
2023-04-15T19:37:49.463Z,98295.21
2023-04-15T19:39:56.167Z,98299.29
2023-04-15T19:42:24.855Z,98303.53
2023-04-15T19:44:34.822Z,98302.88
2023-04-15T19:46:47.816Z,98302.39
2023-04-15T19:48:55.320Z,98301.64
2023-04-15T19:51:03.132Z,98300.20
2023-04-15T19:53:08.594Z,98298.64
2023-04-15T19:55:21.124Z,98300.50
2023-04-15T19:57:24.419Z,98303.91
2023-04-15T19:59:27.889Z,98304.81
2023-04-15T20:01:33.530Z,98307.55
2023-04-15T20:03:36.647Z,98309.61
2023-04-15T20:05:43.272Z,98309.48
2023-04-15T20:07:48.471Z,98307.42
2023-04-15T20:09:54.697Z,98308.89
2023-04-15T20:12:45.690Z,98312.69
2023-04-15T20:14:24.567Z,98309.02
2023-04-15T20:16:27.511Z,98314.02
2023-04-15T20:18:33.233Z,98314.71
2023-04-15T20:20:39.734Z,98315.54
2023-04-15T20:22:42.417Z,98316.36
2023-04-15T20:24:46.324Z,98317.39
2023-04-15T20:26:59.219Z,98318.40
2023-04-15T20:29:18.553Z,98318.40
2023-04-15T20:31:22.957Z,98319.67
2023-04-15T20:33:28.005Z,98318.35
2023-04-15T20:35:31.964Z,98322.61
2023-04-15T20:37:35.109Z,98324.06
2023-04-15T20:39:39.029Z,98326.23
2023-04-15T20:41:51.307Z,98327.39
2023-04-15T20:43:54.209Z,98329.56
2023-04-15T20:46:09.915Z,98333.08
2023-04-15T20:48:26.482Z,98333.85
2023-04-15T20:50:29.504Z,98336.09
2023-04-15T20:52:33.147Z,98335.80
2023-04-15T20:54:36.065Z,98333.06
2023-04-15T20:56:44.367Z,98335.39
2023-04-15T20:58:48.050Z,98331.69
2023-04-15T21:00:54.799Z,98337.81
2023-04-15T21:02:59.541Z,98337.40
2023-04-15T21:05:07.852Z,98337.11
2023-04-15T21:07:13.613Z,98339.86
2023-04-15T21:09:17.645Z,98345.02
2023-04-15T21:11:43.212Z,98346.60
2023-04-15T21:13:52.986Z,98351.46
2023-04-15T21:15:56.927Z,98352.46
2023-04-15T21:18:05.075Z,98354.59
2023-04-15T21:20:12.702Z,98355.10
2023-04-15T21:22:21.595Z,98356.39
2023-04-15T21:24:28.393Z,98358.11
2023-04-15T21:26:32.896Z,98360.77
2023-04-15T21:28:41.385Z,98361.21
2023-04-15T21:30:56.147Z,98364.77
2023-04-15T21:33:01.804Z,98363.83
2023-04-15T21:35:05.900Z,98368.92
2023-04-15T21:37:10.834Z,98370.02
2023-04-15T21:39:14.166Z,98371.42
2023-04-15T21:41:17.204Z,98369.95
2023-04-15T21:43:26.157Z,98373.12
2023-04-15T21:45:29.594Z,98376.60
2023-04-15T21:48:04.456Z,98377.05
2023-04-15T21:49:57.092Z,98380.83
2023-04-15T21:52:02.376Z,98385.38
2023-04-15T21:54:07.176Z,98384.98
2023-04-15T21:56:10.939Z,98387.59
2023-04-15T21:58:16.391Z,98386.52
2023-04-15T22:00:24.070Z,98385.05
2023-04-15T22:02:36.533Z,98385.11
2023-04-15T22:04:39.575Z,98388.05
2023-04-15T22:06:42.477Z,98388.76
2023-04-15T22:08:56.286Z,98389.64
2023-04-15T22:10:59.951Z,98392.99
2023-04-15T22:13:08.052Z,98397.34
2023-04-15T22:15:13.751Z,98397.14
2023-04-15T22:17:18.658Z,98396.87
2023-04-15T22:19:36.562Z,98399.52
2023-04-15T22:21:39.263Z,98401.17
2023-04-15T22:23:42.182Z,98406.41
2023-04-15T22:25:46.330Z,98405.98
2023-04-15T22:27:49.268Z,98404.70
2023-04-15T22:29:56.185Z,98405.50
2023-04-15T22:31:59.247Z,98406.67
2023-04-15T22:34:09.832Z,98412.89
2023-04-15T22:36:17.448Z,98416.09
2023-04-15T22:38:21.795Z,98418.93
2023-04-15T22:40:34.243Z,98420.77
2023-04-15T22:42:37.776Z,98421.45
2023-04-15T22:44:41.438Z,98425.35
2023-04-15T22:46:46.101Z,98425.21
2023-04-15T22:48:51.256Z,98429.52
2023-04-15T22:50:58.340Z,98432.52
2023-04-15T22:53:01.191Z,98437.55
2023-04-15T22:55:09.984Z,98434.58
2023-04-15T22:57:29.028Z,98441.02
2023-04-15T22:59:35.261Z,98439.03
2023-04-15T23:01:40.612Z,98442.33
2023-04-15T23:03:58.526Z,98441.60
2023-04-15T23:06:20.344Z,98443.22
2023-04-15T23:08:26.399Z,98441.30
2023-04-15T23:10:32.147Z,98442.27
2023-04-15T23:12:41.211Z,98442.05
2023-04-15T23:14:45.118Z,98442.20
2023-04-15T23:16:52.309Z,98441.98
2023-04-15T23:18:55.525Z,98446.84
2023-04-15T23:21:16.940Z,98446.55
2023-04-15T23:23:22.149Z,98447.99
2023-04-15T23:25:25.755Z,98449.88
2023-04-15T23:27:36.336Z,98452.86
2023-04-15T23:29:39.884Z,98449.92
2023-04-15T23:31:42.754Z,98452.17
2023-04-15T23:33:46.890Z,98451.34
2023-04-15T23:35:50.391Z,98452.21
2023-04-15T23:37:56.650Z,98454.45
2023-04-15T23:40:00.061Z,98453.67
2023-04-15T23:42:10.340Z,98457.95
2023-04-15T23:44:16.060Z,98455.19
2023-04-15T23:46:21.238Z,98456.29
2023-04-15T23:48:26.476Z,98457.41
2023-04-15T23:50:30.766Z,98458.21
2023-04-15T23:52:37.794Z,98454.08
2023-04-15T23:54:43.016Z,98456.85
2023-04-15T23:56:47.290Z,98457.91
2023-04-15T23:58:50.133Z,98458.42
